This is the latest recevied weather packets stored in our database for station/object N4OGP-WX. If no packets are shown the sender has not sent any weather packets the latest 10 day(s).
| Time | Temp. | Humidity | Pressure | Rain* | Wind** | Luminosity | Snow |
|---|---|---|---|---|---|---|---|
| 1778243609 | 20° C | 87% | 1012.8 hPa | 0 mm | - | - | - |
| 1778243518 | 20° C | 87% | 1012.8 hPa | 0 mm | - | - | - |
| 1778243428 | 23.89° C | 42% | 1020.4 hPa | 0 mm | - | - | - |
| 1778243368 | 19.44° C | 87% | 1012.8 hPa | 0 mm | - | - | - |
| 1778243309 | 19.44° C | 87% | 1012.8 hPa | 0 mm | - | - | - |
| 1778243249 | 19.44° C | 87% | 1012.8 hPa | 0 mm | - | - | - |
| 1778243158 | 19.44° C | 87% | 1012.7 hPa | 0 mm | - | - | - |
| 1778243099 | 23.89° C | 42% | 1020.4 hPa | 0 mm | - | - | - |
| 1778243039 | 19.44° C | 87% | 1012.6 hPa | 0 mm | - | - | - |
| 1778242949 | 23.89° C | 42% | 1020.4 hPa | 0 mm | - | - | - |
| 1778242859 | 19.44° C | 86% | 1012.5 hPa | 0 mm | - | - | - |
| 1778242798 | 19.44° C | 87% | 1012.5 hPa | 0 mm | - | - | - |
| 1778242738 | 19.44° C | 87% | 1012.4 hPa | 0 mm | - | - | - |
| 1778242678 | 23.89° C | 42% | 1020.4 hPa | 0 mm | - | - | - |
| 1778242588 | 23.89° C | 42% | 1020.4 hPa | 0 mm | - | - | - |
| 1778242529 | 19.44° C | 87% | 1012.4 hPa | 0 mm | - | - | - |
| 1778242439 | 19.44° C | 87% | 1012.3 hPa | 0 mm | - | - | - |
| 1778242348 | 19.44° C | 87% | 1012.2 hPa | 0 mm | - | - | - |
| 1778242288 | 19.44° C | 87% | 1012.2 hPa | 0 mm | - | - | - |
| 1778242198 | 19.44° C | 87% | 1012.2 hPa | 0 mm | - | - | - |
| 1778242109 | 23.89° C | 42% | 1020.4 hPa | 0 mm | - | - | - |
| 1778242048 | 23.89° C | 42% | 1020.4 hPa | 0 mm | - | - | - |
| 1778241958 | 19.44° C | 87% | 1012.3 hPa | 0 mm | - | - | - |
| 1778241898 | 19.44° C | 86% | 1012.3 hPa | 0 mm | - | - | - |
| 1778241808 | 23.89° C | 42% | 1020.4 hPa | 0 mm | - | - | - |
* Rain latest hour (hover to see other rain measurements)
** Current wind speed in m/s (hover to see current wind gust speed)